Columbia — WDD6400 — position and weather

sailwx.info

Track history (hours):
 
Tides and Currents Weather Stations Pressure Air Temp Water Temp Dewpoint Dewpoint Depression Visibility Wind Speed Wind Dir Waves Ship Positions

Columbia

Owner: OSG Ship Management Inc., Tampa, FL. More information available from US FCC via Universal Licensing System and Coast Guard Vessel Documentation Center.

Last reported at 2015-Jun-27 07:33 UTC. Time now 2015-Jun-30 10:02 UTC.
Position N 27°46' W 082°31'.

Length 194 m; draft 6 m.

Type: Towing. MMSI: 367172440.

Date/timePositionNaut miles runAvg speedWind from/ knotsBaromVisibWave heightAir tempDewpointWater temp
2015-Jun-27 07:33N 27°46' W 082°31'9 8.9
2015-Jun-27 06:33N 27°54' W 082°26'1 1.0
2015-Jun-27 05:33N 27°55' W 082°27'0 0.0
2015-Jun-27 04:33N 27°55' W 082°27'0 0.0
2015-Jun-27 03:33N 27°55' W 082°27'0 0.0
2015-Jun-27 02:33N 27°55' W 082°27'0 0.0
2015-Jun-27 01:33N 27°55' W 082°27'0 0.0
2015-Jun-27 00:33N 27°55' W 082°27'0 0.0
2015-Jun-26 23:33N 27°55' W 082°27'0 0.0
2015-Jun-26 22:33N 27°55' W 082°27'0 0.0
2015-Jun-26 21:33N 27°55' W 082°27'0 0.0
2015-Jun-26 20:33N 27°55' W 082°27'0 0.0
2015-Jun-26 19:33N 27°55' W 082°27'1 1.1
2015-Jun-26 18:33N 27°56' W 082°27'1 1.2
2015-Jun-26 17:33N 27°55' W 082°26'0 0.0
2015-Jun-26 16:33N 27°55' W 082°26'0 0.0
2015-Jun-26 15:33N 27°55' W 082°26'0 0.0
2015-Jun-26 14:31N 27°55' W 082°26'0 0.0
2015-Jun-26 13:33N 27°55' W 082°26'0 0.0
2015-Jun-26 12:33N 27°55' W 082°26'0 0.0
2015-Jun-26 11:33N 27°55' W 082°26'0 0.0
2015-Jun-26 10:33N 27°55' W 082°26'0 0.0
2015-Jun-26 09:33N 27°55' W 082°26'0 0.0
2015-Jun-26 08:33N 27°55' W 082°26'0 0.0
2015-Jun-26 07:33N 27°55' W 082°26'0 0.0
2015-Jun-26 06:33N 27°55' W 082°26'0 0.0
2015-Jun-26 05:33N 27°55' W 082°26'0 0.0
2015-Jun-26 04:33N 27°55' W 082°26'0 0.0
2015-Jun-26 03:33N 27°55' W 082°26'0 0.0
2015-Jun-26 02:33N 27°55' W 082°26'0 0.0
2015-Jun-26 01:33N 27°55' W 082°26'0 0.0
2015-Jun-26 00:33N 27°55' W 082°26'0 0.0
2015-Jun-25 23:33N 27°55' W 082°26'0 0.0
2015-Jun-25 22:33N 27°55' W 082°26'0 0.0
2015-Jun-25 21:33N 27°55' W 082°26'0 0.0
2015-Jun-25 20:33N 27°55' W 082°26'0 0.0
2015-Jun-25 19:33N 27°55' W 082°26'0 0.0
2015-Jun-25 18:33N 27°55' W 082°26'0 0.0
2015-Jun-25 17:33N 27°55' W 082°26'0 0.0
2015-Jun-25 16:33N 27°55' W 082°26'0 0.0
2015-Jun-25 15:33N 27°55' W 082°26'0 0.0
2015-Jun-25 14:33N 27°55' W 082°26'1 0.9
2015-Jun-25 13:33N 27°55' W 082°27'1 1.2
2015-Jun-25 12:33N 27°56' W 082°27'2 2.2
2015-Jun-25 11:33N 27°54' W 082°26'8 8.2
2015-Jun-25 10:33N 27°47' W 082°31'10 9.5
2015-Jun-25 09:33N 27°39' W 082°37'  
2015-Jun-18 04:33N 27°47' W 082°31'8 8.4
2015-Jun-18 03:33N 27°54' W 082°26'2 2.2
2015-Jun-18 02:33N 27°56' W 082°27'0 0.3
2015-Jun-18 01:34N 27°56' W 082°27'0 0.0
2015-Jun-18 00:33N 27°56' W 082°27'0 0.0
2015-Jun-17 23:33N 27°56' W 082°27'0 0.0
2015-Jun-17 22:33N 27°56' W 082°27'0 0.0
2015-Jun-17 21:33N 27°56' W 082°27'0 0.0
2015-Jun-17 20:33N 27°56' W 082°27'0 0.0
2015-Jun-17 19:33N 27°56' W 082°27'0 0.0
2015-Jun-17 18:33N 27°56' W 082°27'0 0.0
2015-Jun-17 17:33N 27°56' W 082°27'0 0.0
2015-Jun-17 16:33N 27°56' W 082°27'0 0.0
2015-Jun-17 15:33N 27°56' W 082°27'0 0.0
2015-Jun-17 14:33N 27°56' W 082°27'0 0.0
2015-Jun-17 13:33N 27°56' W 082°27'0 0.0
2015-Jun-17 12:33N 27°56' W 082°27'0 0.0
2015-Jun-17 11:33N 27°56' W 082°27'0 0.0
2015-Jun-17 10:33N 27°56' W 082°27'0 0.0
2015-Jun-17 09:33N 27°56' W 082°27'0 0.0
2015-Jun-17 08:33N 27°56' W 082°27'0 0.0
2015-Jun-17 07:33N 27°56' W 082°27'  
Track history (hours):
 
Tides and Currents Weather Stations Pressure Air Temp Water Temp Dewpoint Dewpoint Depression Visibility Wind Speed Wind Dir Waves Ship Positions

Columbia

Owner: OSG Ship Management Inc., Tampa, FL. More information available from US FCC via Universal Licensing System and Coast Guard Vessel Documentation Center.

Last reported at 2015-Jun-27 07:33 UTC. Time now 2015-Jun-30 10:02 UTC.
Position N 27°46' W 082°31'.

Length 194 m; draft 6 m.

Type: Towing. MMSI: 367172440.

Date/timePositionNaut miles runAvg speedWind from/ knotsBaromVisibWave heightAir tempDewpointWater temp
2015-Jun-27 07:33N 27°46' W 082°31'9 8.9
2015-Jun-27 06:33N 27°54' W 082°26'1 1.0
2015-Jun-27 05:33N 27°55' W 082°27'0 0.0
2015-Jun-27 04:33N 27°55' W 082°27'0 0.0
2015-Jun-27 03:33N 27°55' W 082°27'0 0.0
2015-Jun-27 02:33N 27°55' W 082°27'0 0.0
2015-Jun-27 01:33N 27°55' W 082°27'0 0.0
2015-Jun-27 00:33N 27°55' W 082°27'0 0.0
2015-Jun-26 23:33N 27°55' W 082°27'0 0.0
2015-Jun-26 22:33N 27°55' W 082°27'0 0.0
2015-Jun-26 21:33N 27°55' W 082°27'0 0.0
2015-Jun-26 20:33N 27°55' W 082°27'0 0.0
2015-Jun-26 19:33N 27°55' W 082°27'1 1.1
2015-Jun-26 18:33N 27°56' W 082°27'1 1.2
2015-Jun-26 17:33N 27°55' W 082°26'0 0.0
2015-Jun-26 16:33N 27°55' W 082°26'0 0.0
2015-Jun-26 15:33N 27°55' W 082°26'0 0.0
2015-Jun-26 14:31N 27°55' W 082°26'0 0.0
2015-Jun-26 13:33N 27°55' W 082°26'0 0.0
2015-Jun-26 12:33N 27°55' W 082°26'0 0.0
2015-Jun-26 11:33N 27°55' W 082°26'0 0.0
2015-Jun-26 10:33N 27°55' W 082°26'0 0.0
2015-Jun-26 09:33N 27°55' W 082°26'0 0.0
2015-Jun-26 08:33N 27°55' W 082°26'0 0.0
2015-Jun-26 07:33N 27°55' W 082°26'0 0.0
2015-Jun-26 06:33N 27°55' W 082°26'0 0.0
2015-Jun-26 05:33N 27°55' W 082°26'0 0.0
2015-Jun-26 04:33N 27°55' W 082°26'0 0.0
2015-Jun-26 03:33N 27°55' W 082°26'0 0.0
2015-Jun-26 02:33N 27°55' W 082°26'0 0.0
2015-Jun-26 01:33N 27°55' W 082°26'0 0.0
2015-Jun-26 00:33N 27°55' W 082°26'0 0.0
2015-Jun-25 23:33N 27°55' W 082°26'0 0.0
2015-Jun-25 22:33N 27°55' W 082°26'0 0.0
2015-Jun-25 21:33N 27°55' W 082°26'0 0.0
2015-Jun-25 20:33N 27°55' W 082°26'0 0.0
2015-Jun-25 19:33N 27°55' W 082°26'0 0.0
2015-Jun-25 18:33N 27°55' W 082°26'0 0.0
2015-Jun-25 17:33N 27°55' W 082°26'0 0.0
2015-Jun-25 16:33N 27°55' W 082°26'0 0.0
2015-Jun-25 15:33N 27°55' W 082°26'0 0.0
2015-Jun-25 14:33N 27°55' W 082°26'1 0.9
2015-Jun-25 13:33N 27°55' W 082°27'1 1.2
2015-Jun-25 12:33N 27°56' W 082°27'2 2.2
2015-Jun-25 11:33N 27°54' W 082°26'8 8.2
2015-Jun-25 10:33N 27°47' W 082°31'10 9.5
2015-Jun-25 09:33N 27°39' W 082°37'  
2015-Jun-18 04:33N 27°47' W 082°31'8 8.4
2015-Jun-18 03:33N 27°54' W 082°26'2 2.2
2015-Jun-18 02:33N 27°56' W 082°27'0 0.3
2015-Jun-18 01:34N 27°56' W 082°27'0 0.0
2015-Jun-18 00:33N 27°56' W 082°27'0 0.0
2015-Jun-17 23:33N 27°56' W 082°27'0 0.0
2015-Jun-17 22:33N 27°56' W 082°27'0 0.0
2015-Jun-17 21:33N 27°56' W 082°27'0 0.0
2015-Jun-17 20:33N 27°56' W 082°27'0 0.0
2015-Jun-17 19:33N 27°56' W 082°27'0 0.0
2015-Jun-17 18:33N 27°56' W 082°27'0 0.0
2015-Jun-17 17:33N 27°56' W 082°27'0 0.0
2015-Jun-17 16:33N 27°56' W 082°27'0 0.0
2015-Jun-17 15:33N 27°56' W 082°27'0 0.0
2015-Jun-17 14:33N 27°56' W 082°27'0 0.0
2015-Jun-17 13:33N 27°56' W 082°27'0 0.0
2015-Jun-17 12:33N 27°56' W 082°27'0 0.0
2015-Jun-17 11:33N 27°56' W 082°27'0 0.0
2015-Jun-17 10:33N 27°56' W 082°27'0 0.0
2015-Jun-17 09:33N 27°56' W 082°27'0 0.0
2015-Jun-17 08:33N 27°56' W 082°27'0 0.0
2015-Jun-17 07:33N 27°56' W 082°27'  

Dump ship's entire track history